sensor_id;sensor_type;location;lat;lon;timestamp;temperature;humidity
5617;DHT22;2830;50.656;7.568;2023-04-01T00:01:45;9.20;99.90
5617;DHT22;2830;50.656;7.568;2023-04-01T00:04:12;9.10;99.90
5617;DHT22;2830;50.656;7.568;2023-04-01T00:06:39;9.10;99.90
5617;DHT22;2830;50.656;7.568;2023-04-01T00:09:06;9.10;99.90
5617;DHT22;2830;50.656;7.568;2023-04-01T00:11:33;9.00;99.90
5617;DHT22;2830;50.656;7.568;2023-04-01T00:13:59;9.00;99.90
5617;DHT22;2830;50.656;7.568;2023-04-01T00:16:26;9.00;99.90
5617;DHT22;2830;50.656;7.568;2023-04-01T00:18:53;9.00;99.90
5617;DHT22;2830;50.656;7.568;2023-04-01T00:21:20;9.10;99.90
5617;DHT22;2830;50.656;7.568;2023-04-01T00:23:49;9.00;99.90
5617;DHT22;2830;50.656;7.568;2023-04-01T00:26:17;9.00;99.90
5617;DHT22;2830;50.656;7.568;2023-04-01T00:28:47;9.00;99.90
5617;DHT22;2830;50.656;7.568;2023-04-01T00:31:14;9.00;99.90
5617;DHT22;2830;50.656;7.568;2023-04-01T00:33:41;8.90;99.90
5617;DHT22;2830;50.656;7.568;2023-04-01T00:36:13;8.90;99.90
5617;DHT22;2830;50.656;7.568;2023-04-01T00:38:40;8.90;99.90
5617;DHT22;2830;50.656;7.568;2023-04-01T00:41:10;8.90;99.90
5617;DHT22;2830;50.656;7.568;2023-04-01T00:43:41;8.90;99.90
5617;DHT22;2830;50.656;7.568;2023-04-01T00:46:14;8.90;99.90
5617;DHT22;2830;50.656;7.568;2023-04-01T00:48:50;8.90;99.90
5617;DHT22;2830;50.656;7.568;2023-04-01T00:51:21;8.90;99.90
5617;DHT22;2830;50.656;7.568;2023-04-01T00:53:52;8.90;99.90
5617;DHT22;2830;50.656;7.568;2023-04-01T00:56:24;8.90;99.90
5617;DHT22;2830;50.656;7.568;2023-04-01T00:59:10;8.90;99.90
5617;DHT22;2830;50.656;7.568;2023-04-01T01:01:38;8.90;99.90
5617;DHT22;2830;50.656;7.568;2023-04-01T01:04:04;8.80;99.90
5617;DHT22;2830;50.656;7.568;2023-04-01T01:12:00;8.80;99.90
5617;DHT22;2830;50.656;7.568;2023-04-01T01:14:45;8.80;99.90
5617;DHT22;2830;50.656;7.568;2023-04-01T01:17:29;8.80;99.90
5617;DHT22;2830;50.656;7.568;2023-04-01T01:20:33;8.80;99.90
5617;DHT22;2830;50.656;7.568;2023-04-01T01:36:37;8.80;99.90
5617;DHT22;2830;50.656;7.568;2023-04-01T01:39:05;8.80;99.90
5617;DHT22;2830;50.656;7.568;2023-04-01T01:41:35;8.90;99.90
5617;DHT22;2830;50.656;7.568;2023-04-01T01:44:04;8.90;99.90
5617;DHT22;2830;50.656;7.568;2023-04-01T01:46:33;8.80;99.90
5617;DHT22;2830;50.656;7.568;2023-04-01T01:49:00;8.90;99.90
5617;DHT22;2830;50.656;7.568;2023-04-01T01:51:28;8.90;99.90
5617;DHT22;2830;50.656;7.568;2023-04-01T01:53:55;8.90;99.90
5617;DHT22;2830;50.656;7.568;2023-04-01T01:56:23;8.90;99.90
5617;DHT22;2830;50.656;7.568;2023-04-01T01:59:06;8.90;99.90
5617;DHT22;2830;50.656;7.568;2023-04-01T02:01:37;9.00;99.90
5617;DHT22;2830;50.656;7.568;2023-04-01T02:04:06;9.00;99.90
5617;DHT22;2830;50.656;7.568;2023-04-01T02:06:38;9.00;99.90
5617;DHT22;2830;50.656;7.568;2023-04-01T02:09:07;9.00;99.90
5617;DHT22;2830;50.656;7.568;2023-04-01T02:11:41;9.00;99.90
5617;DHT22;2830;50.656;7.568;2023-04-01T02:19:25;9.00;99.90
5617;DHT22;2830;50.656;7.568;2023-04-01T02:21:57;9.00;99.90
5617;DHT22;2830;50.656;7.568;2023-04-01T02:24:25;9.00;99.90
5617;DHT22;2830;50.656;7.568;2023-04-01T02:26:53;9.00;99.90
5617;DHT22;2830;50.656;7.568;2023-04-01T02:29:21;9.00;99.90
5617;DHT22;2830;50.656;7.568;2023-04-01T02:31:49;9.00;99.90
5617;DHT22;2830;50.656;7.568;2023-04-01T02:34:16;9.00;99.90
5617;DHT22;2830;50.656;7.568;2023-04-01T02:36:43;9.00;99.90
5617;DHT22;2830;50.656;7.568;2023-04-01T02:39:10;9.00;99.90
5617;DHT22;2830;50.656;7.568;2023-04-01T02:41:45;9.00;99.90
5617;DHT22;2830;50.656;7.568;2023-04-01T02:44:13;9.00;99.90
5617;DHT22;2830;50.656;7.568;2023-04-01T02:46:41;9.00;99.90
5617;DHT22;2830;50.656;7.568;2023-04-01T02:49:08;8.90;99.90
5617;DHT22;2830;50.656;7.568;2023-04-01T02:51:35;8.90;99.90
5617;DHT22;2830;50.656;7.568;2023-04-01T02:54:02;8.90;99.90
5617;DHT22;2830;50.656;7.568;2023-04-01T02:56:28;8.80;99.90
5617;DHT22;2830;50.656;7.568;2023-04-01T02:58:55;8.70;99.90
5617;DHT22;2830;50.656;7.568;2023-04-01T03:03:49;8.70;99.90
5617;DHT22;2830;50.656;7.568;2023-04-01T03:06:17;8.60;99.90
5617;DHT22;2830;50.656;7.568;2023-04-01T03:08:44;8.60;99.90
5617;DHT22;2830;50.656;7.568;2023-04-01T03:11:11;8.60;99.90
5617;DHT22;2830;50.656;7.568;2023-04-01T03:13:38;8.60;99.90
5617;DHT22;2830;50.656;7.568;2023-04-01T03:16:05;8.50;99.90
5617;DHT22;2830;50.656;7.568;2023-04-01T03:18:32;8.50;99.90
5617;DHT22;2830;50.656;7.568;2023-04-01T03:21:16;8.40;99.90
5617;DHT22;2830;50.656;7.568;2023-04-01T03:23:43;8.40;99.90
5617;DHT22;2830;50.656;7.568;2023-04-01T03:26:09;8.40;99.90
5617;DHT22;2830;50.656;7.568;2023-04-01T03:28:36;8.30;99.90
5617;DHT22;2830;50.656;7.568;2023-04-01T03:31:03;8.30;99.90
5617;DHT22;2830;50.656;7.568;2023-04-01T03:33:31;8.30;99.90
5617;DHT22;2830;50.656;7.568;2023-04-01T03:35:57;8.30;99.90
5617;DHT22;2830;50.656;7.568;2023-04-01T03:38:24;8.20;99.90
5617;DHT22;2830;50.656;7.568;2023-04-01T03:40:51;8.20;99.90
5617;DHT22;2830;50.656;7.568;2023-04-01T03:43:17;8.20;99.90
5617;DHT22;2830;50.656;7.568;2023-04-01T03:45:48;8.20;99.90
5617;DHT22;2830;50.656;7.568;2023-04-01T03:48:15;8.20;99.90
5617;DHT22;2830;50.656;7.568;2023-04-01T03:50:42;8.20;99.90
5617;DHT22;2830;50.656;7.568;2023-04-01T03:53:10;8.10;99.90
5617;DHT22;2830;50.656;7.568;2023-04-01T03:55:41;8.10;99.90
5617;DHT22;2830;50.656;7.568;2023-04-01T03:58:07;8.10;99.90
5617;DHT22;2830;50.656;7.568;2023-04-01T04:00:36;8.10;99.90
5617;DHT22;2830;50.656;7.568;2023-04-01T04:03:03;8.20;99.90
5617;DHT22;2830;50.656;7.568;2023-04-01T04:05:30;8.10;99.90
5617;DHT22;2830;50.656;7.568;2023-04-01T04:07:58;8.10;99.90
5617;DHT22;2830;50.656;7.568;2023-04-01T04:10:24;8.10;99.90
5617;DHT22;2830;50.656;7.568;2023-04-01T04:12:52;8.10;99.90
5617;DHT22;2830;50.656;7.568;2023-04-01T04:15:18;8.10;99.90
5617;DHT22;2830;50.656;7.568;2023-04-01T04:17:45;8.10;99.90
5617;DHT22;2830;50.656;7.568;2023-04-01T04:20:12;8.10;99.90
5617;DHT22;2830;50.656;7.568;2023-04-01T04:22:39;8.20;99.90
5617;DHT22;2830;50.656;7.568;2023-04-01T04:25:07;8.20;99.90
5617;DHT22;2830;50.656;7.568;2023-04-01T04:27:33;8.10;99.90
5617;DHT22;2830;50.656;7.568;2023-04-01T04:30:00;8.10;99.90
5617;DHT22;2830;50.656;7.568;2023-04-01T04:32:27;8.10;99.90
5617;DHT22;2830;50.656;7.568;2023-04-01T04:34:55;8.10;99.90
5617;DHT22;2830;50.656;7.568;2023-04-01T04:37:22;8.10;99.90
5617;DHT22;2830;50.656;7.568;2023-04-01T04:39:49;8.10;99.90
5617;DHT22;2830;50.656;7.568;2023-04-01T04:42:17;8.10;99.90
5617;DHT22;2830;50.656;7.568;2023-04-01T04:44:43;8.10;99.90
5617;DHT22;2830;50.656;7.568;2023-04-01T04:47:11;8.10;99.90
5617;DHT22;2830;50.656;7.568;2023-04-01T04:49:38;8.10;99.90
5617;DHT22;2830;50.656;7.568;2023-04-01T04:52:05;8.10;99.90
5617;DHT22;2830;50.656;7.568;2023-04-01T04:54:31;8.10;99.90
5617;DHT22;2830;50.656;7.568;2023-04-01T04:56:58;8.10;99.90
5617;DHT22;2830;50.656;7.568;2023-04-01T04:59:25;8.10;99.90
5617;DHT22;2830;50.656;7.568;2023-04-01T05:01:52;8.10;99.90
5617;DHT22;2830;50.656;7.568;2023-04-01T05:04:19;8.10;99.90
5617;DHT22;2830;50.656;7.568;2023-04-01T05:06:46;8.00;99.90
5617;DHT22;2830;50.656;7.568;2023-04-01T05:09:12;8.00;99.90
5617;DHT22;2830;50.656;7.568;2023-04-01T05:11:40;8.00;99.90
5617;DHT22;2830;50.656;7.568;2023-04-01T05:14:15;8.00;99.90
5617;DHT22;2830;50.656;7.568;2023-04-01T05:16:42;8.10;99.90
5617;DHT22;2830;50.656;7.568;2023-04-01T05:19:09;8.10;99.90
5617;DHT22;2830;50.656;7.568;2023-04-01T05:21:36;8.10;99.90
5617;DHT22;2830;50.656;7.568;2023-04-01T05:24:03;8.10;99.90
5617;DHT22;2830;50.656;7.568;2023-04-01T05:26:29;8.10;99.90
5617;DHT22;2830;50.656;7.568;2023-04-01T05:28:57;8.10;99.90
5617;DHT22;2830;50.656;7.568;2023-04-01T05:31:23;8.10;99.90
5617;DHT22;2830;50.656;7.568;2023-04-01T05:33:51;8.10;99.90
5617;DHT22;2830;50.656;7.568;2023-04-01T05:36:17;8.10;99.90
5617;DHT22;2830;50.656;7.568;2023-04-01T05:38:44;8.10;99.90
5617;DHT22;2830;50.656;7.568;2023-04-01T05:41:14;8.10;99.90
5617;DHT22;2830;50.656;7.568;2023-04-01T05:43:41;8.10;99.90
5617;DHT22;2830;50.656;7.568;2023-04-01T05:46:09;8.10;99.90
5617;DHT22;2830;50.656;7.568;2023-04-01T05:48:36;8.10;99.90
5617;DHT22;2830;50.656;7.568;2023-04-01T05:51:03;8.10;99.90
5617;DHT22;2830;50.656;7.568;2023-04-01T05:53:32;8.10;99.90
5617;DHT22;2830;50.656;7.568;2023-04-01T05:56:02;8.10;99.90
5617;DHT22;2830;50.656;7.568;2023-04-01T05:58:29;8.10;99.90
5617;DHT22;2830;50.656;7.568;2023-04-01T06:01:07;8.10;99.90
5617;DHT22;2830;50.656;7.568;2023-04-01T06:03:41;8.20;99.90
5617;DHT22;2830;50.656;7.568;2023-04-01T06:06:26;8.10;99.90
5617;DHT22;2830;50.656;7.568;2023-04-01T06:08:56;8.20;99.90
5617;DHT22;2830;50.656;7.568;2023-04-01T06:20:24;8.30;99.90
5617;DHT22;2830;50.656;7.568;2023-04-01T06:25:50;8.30;99.90
5617;DHT22;2830;50.656;7.568;2023-04-01T06:34:41;8.30;99.90
5617;DHT22;2830;50.656;7.568;2023-04-01T06:40:54;8.30;99.90
5617;DHT22;2830;50.656;7.568;2023-04-01T06:46:45;8.30;99.90
5617;DHT22;2830;50.656;7.568;2023-04-01T06:54:47;8.30;99.90
5617;DHT22;2830;50.656;7.568;2023-04-01T06:57:39;8.30;99.90
5617;DHT22;2830;50.656;7.568;2023-04-01T07:00:32;8.40;99.90
5617;DHT22;2830;50.656;7.568;2023-04-01T07:05:44;8.50;99.90
5617;DHT22;2830;50.656;7.568;2023-04-01T07:08:19;8.50;99.90
5617;DHT22;2830;50.656;7.568;2023-04-01T07:11:05;8.60;99.90
5617;DHT22;2830;50.656;7.568;2023-04-01T07:16:21;8.70;99.90
5617;DHT22;2830;50.656;7.568;2023-04-01T07:19:12;8.70;99.90
5617;DHT22;2830;50.656;7.568;2023-04-01T07:21:45;8.70;99.90
5617;DHT22;2830;50.656;7.568;2023-04-01T07:24:26;8.80;99.90
5617;DHT22;2830;50.656;7.568;2023-04-01T07:26:57;8.80;99.90
5617;DHT22;2830;50.656;7.568;2023-04-01T07:29:25;8.80;99.90
5617;DHT22;2830;50.656;7.568;2023-04-01T07:37:11;8.80;99.90
5617;DHT22;2830;50.656;7.568;2023-04-01T07:51:11;9.00;99.90
5617;DHT22;2830;50.656;7.568;2023-04-01T07:54:03;9.00;99.90
5617;DHT22;2830;50.656;7.568;2023-04-01T07:56:41;9.20;99.90
5617;DHT22;2830;50.656;7.568;2023-04-01T08:02:20;9.30;99.90
5617;DHT22;2830;50.656;7.568;2023-04-01T08:05:04;9.40;99.90
5617;DHT22;2830;50.656;7.568;2023-04-01T08:07:48;9.40;99.90
5617;DHT22;2830;50.656;7.568;2023-04-01T08:19:14;9.50;99.90
5617;DHT22;2830;50.656;7.568;2023-04-01T08:21:45;9.50;99.90
5617;DHT22;2830;50.656;7.568;2023-04-01T08:24:45;9.60;99.90
5617;DHT22;2830;50.656;7.568;2023-04-01T08:27:35;9.70;99.90
5617;DHT22;2830;50.656;7.568;2023-04-01T08:30:22;9.80;99.90
5617;DHT22;2830;50.656;7.568;2023-04-01T08:33:06;9.90;99.90
5617;DHT22;2830;50.656;7.568;2023-04-01T08:38:36;9.90;99.90
5617;DHT22;2830;50.656;7.568;2023-04-01T08:46:38;9.80;99.90
5617;DHT22;2830;50.656;7.568;2023-04-01T08:49:55;9.80;99.90
5617;DHT22;2830;50.656;7.568;2023-04-01T08:52:41;9.80;99.90
5617;DHT22;2830;50.656;7.568;2023-04-01T08:58:11;9.90;99.90
5617;DHT22;2830;50.656;7.568;2023-04-01T09:06:24;9.90;99.90
5617;DHT22;2830;50.656;7.568;2023-04-01T09:14:34;10.10;99.90
5617;DHT22;2830;50.656;7.568;2023-04-01T09:17:48;10.10;99.90
5617;DHT22;2830;50.656;7.568;2023-04-01T09:20:32;10.10;99.90
5617;DHT22;2830;50.656;7.568;2023-04-01T09:26:18;10.10;99.90
5617;DHT22;2830;50.656;7.568;2023-04-01T09:40:20;10.10;99.90
5617;DHT22;2830;50.656;7.568;2023-04-01T09:45:58;10.20;99.90
5617;DHT22;2830;50.656;7.568;2023-04-01T10:06:21;10.20;99.90
5617;DHT22;2830;50.656;7.568;2023-04-01T10:38:39;10.50;99.90
5617;DHT22;2830;50.656;7.568;2023-04-01T10:57:58;10.60;99.90
5617;DHT22;2830;50.656;7.568;2023-04-01T11:03:33;10.80;99.90
5617;DHT22;2830;50.656;7.568;2023-04-01T11:23:14;10.90;99.90
5617;DHT22;2830;50.656;7.568;2023-04-01T11:26:02;11.00;99.90
5617;DHT22;2830;50.656;7.568;2023-04-01T11:34:11;11.20;99.90
5617;DHT22;2830;50.656;7.568;2023-04-01T11:39:31;11.50;99.90
5617;DHT22;2830;50.656;7.568;2023-04-01T11:42:28;11.50;99.90
5617;DHT22;2830;50.656;7.568;2023-04-01T11:59:38;11.30;99.90
5617;DHT22;2830;50.656;7.568;2023-04-01T12:02:35;11.40;99.90
5617;DHT22;2830;50.656;7.568;2023-04-01T12:08:23;11.40;99.90
5617;DHT22;2830;50.656;7.568;2023-04-01T12:11:17;11.10;99.90
5617;DHT22;2830;50.656;7.568;2023-04-01T12:13:59;11.00;99.90
5617;DHT22;2830;50.656;7.568;2023-04-01T12:22:30;11.00;99.90
5617;DHT22;2830;50.656;7.568;2023-04-01T12:33:24;11.60;99.90
5617;DHT22;2830;50.656;7.568;2023-04-01T12:39:20;11.80;99.90
5617;DHT22;2830;50.656;7.568;2023-04-01T12:45:11;12.00;99.90
5617;DHT22;2830;50.656;7.568;2023-04-01T12:53:34;11.70;99.90
5617;DHT22;2830;50.656;7.568;2023-04-01T12:56:32;11.50;99.90
5617;DHT22;2830;50.656;7.568;2023-04-01T12:59:17;11.40;99.90
5617;DHT22;2830;50.656;7.568;2023-04-01T13:02:01;11.20;99.90
5617;DHT22;2830;50.656;7.568;2023-04-01T13:15:54;10.80;99.90
5617;DHT22;2830;50.656;7.568;2023-04-01T13:18:54;11.00;99.90
5617;DHT22;2830;50.656;7.568;2023-04-01T13:24:52;11.40;99.90
5617;DHT22;2830;50.656;7.568;2023-04-01T13:30:05;11.60;99.90
5617;DHT22;2830;50.656;7.568;2023-04-01T13:32:47;11.60;99.90
5617;DHT22;2830;50.656;7.568;2023-04-01T13:35:23;11.60;99.90
5617;DHT22;2830;50.656;7.568;2023-04-01T13:44:59;11.30;99.90
5617;DHT22;2830;50.656;7.568;2023-04-01T13:47:24;11.10;99.90
5617;DHT22;2830;50.656;7.568;2023-04-01T13:50:20;11.00;99.90
5617;DHT22;2830;50.656;7.568;2023-04-01T13:53:02;10.70;99.90
5617;DHT22;2830;50.656;7.568;2023-04-01T13:55:40;10.60;99.90
5617;DHT22;2830;50.656;7.568;2023-04-01T14:06:43;10.50;99.90
5617;DHT22;2830;50.656;7.568;2023-04-01T14:09:36;10.50;99.90
5617;DHT22;2830;50.656;7.568;2023-04-01T14:12:29;10.60;99.90
5617;DHT22;2830;50.656;7.568;2023-04-01T14:20:53;10.70;99.90
5617;DHT22;2830;50.656;7.568;2023-04-01T14:23:39;10.70;99.90
5617;DHT22;2830;50.656;7.568;2023-04-01T14:37:29;11.20;99.90
5617;DHT22;2830;50.656;7.568;2023-04-01T14:43:01;11.50;99.90
5617;DHT22;2830;50.656;7.568;2023-04-01T14:48:38;11.30;99.90
5617;DHT22;2830;50.656;7.568;2023-04-01T14:51:19;11.10;99.90
5617;DHT22;2830;50.656;7.568;2023-04-01T14:54:29;11.10;99.90
5617;DHT22;2830;50.656;7.568;2023-04-01T14:59:47;11.30;99.90
5617;DHT22;2830;50.656;7.568;2023-04-01T15:04:56;12.10;99.90
